Time;durP1;ratioP1;P1;durP2;ratioP2;P2;SDS_P1;SDS_P2;PMS_P1;PMS_P2;Temp;Humidity;BMP_temperature;BMP_pressure;BME280_temperature;BME280_humidity;BME280_pressure;Samples;Min_cycle;Max_cycle;Signal;HPM_P1;HPM_P2
2023/03/17 00:00:16;;;;;;;2.17;1.30;;;6.90;99.90;;;;;;5037283;28;20036;-67
2023/03/17 00:02:44;;;;;;;2.70;1.30;;;7.10;99.90;;;;;;5054784;28;20043;-67
2023/03/17 00:05:19;;;;;;;2.42;1.42;;;7.00;99.90;;;;;;5054721;28;20056;-67
2023/03/17 00:07:46;;;;;;;2.20;1.50;;;7.00;99.90;;;;;;5054674;28;20088;-67
2023/03/17 00:10:21;;;;;;;3.17;1.40;;;7.20;99.90;;;;;;5054643;28;20048;-67
2023/03/17 00:12:48;;;;;;;2.97;1.73;;;7.10;99.90;;;;;;5054573;28;20074;-67
2023/03/17 00:15:14;;;;;;;2.72;1.48;;;7.00;99.90;;;;;;5055025;28;20049;-67
2023/03/17 00:17:41;;;;;;;2.40;1.30;;;7.10;99.90;;;;;;5054389;28;20096;-67
2023/03/17 00:20:13;;;;;;;2.35;1.30;;;7.40;99.90;;;;;;5054467;28;20088;-67
2023/03/17 00:22:39;;;;;;;2.28;1.45;;;7.10;99.90;;;;;;5053948;28;20516;-67
2023/03/17 00:25:33;;;;;;;4.10;1.45;;;7.10;99.90;;;;;;5054971;28;20051;-67
2023/03/17 00:28:00;;;;;;;4.22;1.67;;;7.40;99.90;;;;;;5018176;28;20544;-67
2023/03/17 00:30:27;;;;;;;2.65;1.42;;;7.40;99.90;;;;;;5055059;28;20132;-67
2023/03/17 00:32:57;;;;;;;2.22;1.50;;;7.10;99.90;;;;;;5055019;28;20103;-67
2023/03/17 00:35:25;;;;;;;3.03;1.40;;;7.00;99.90;;;;;;5036369;28;20128;-67
2023/03/17 00:37:52;;;;;;;3.38;1.50;;;7.10;99.90;;;;;;5054085;28;20110;-67
2023/03/17 00:40:29;;;;;;;3.15;1.35;;;7.00;99.90;;;;;;5054648;28;20053;-67
2023/03/17 00:42:58;;;;;;;4.28;1.90;;;7.10;99.90;;;;;;5036641;28;20110;-67
2023/03/17 00:45:25;;;;;;;4.03;1.60;;;7.20;99.90;;;;;;5053996;28;20366;-67
2023/03/17 00:54:46;;;;;;;5.55;1.85;;;6.30;99.90;;;;;;5268930;22;20049;-72
2023/03/17 00:57:12;;;;;;;3.33;1.85;;;7.20;99.90;;;;;;5053506;28;20105;-67
2023/03/17 00:59:41;;;;;;;2.78;1.48;;;7.00;99.90;;;;;;5054238;28;20163;-68
2023/03/17 01:02:12;;;;;;;3.90;1.98;;;7.00;99.90;;;;;;5054331;28;20083;-68
2023/03/17 01:04:38;;;;;;;3.13;1.80;;;7.10;99.90;;;;;;5020253;28;20040;-68
2023/03/17 01:07:04;;;;;;;2.95;1.80;;;7.20;99.90;;;;;;5036369;28;20059;-67
2023/03/17 01:09:30;;;;;;;2.83;1.80;;;7.00;99.90;;;;;;5054514;28;20378;-67
2023/03/17 01:11:56;;;;;;;4.78;2.22;;;7.30;99.90;;;;;;5054208;28;20125;-67
2023/03/17 01:14:23;;;;;;;6.80;1.98;;;7.00;99.90;;;;;;5019524;28;20384;-67
2023/03/17 01:16:49;;;;;;;4.43;2.30;;;7.00;99.90;;;;;;5053917;28;20492;-68
2023/03/17 01:19:15;;;;;;;2.78;1.88;;;7.00;99.90;;;;;;5053608;28;20044;-67
2023/03/17 01:21:41;;;;;;;2.85;1.85;;;7.10;99.90;;;;;;5053545;28;20045;-68
2023/03/17 01:24:08;;;;;;;3.85;1.95;;;7.20;99.90;;;;;;5053503;28;20052;-68
2023/03/17 01:26:34;;;;;;;3.33;2.17;;;7.00;99.90;;;;;;5053555;28;20434;-68
2023/03/17 01:28:59;;;;;;;4.90;2.05;;;7.10;99.90;;;;;;5054276;28;20037;-68
2023/03/17 01:31:25;;;;;;;2.88;2.08;;;6.90;99.90;;;;;;5053450;28;20045;-68
2023/03/17 01:33:51;;;;;;;5.72;1.90;;;6.90;99.90;;;;;;5035684;28;20070;-67
2023/03/17 01:36:17;;;;;;;3.65;2.15;;;7.20;99.90;;;;;;5053947;28;20044;-67
2023/03/17 01:38:44;;;;;;;3.20;2.60;;;6.80;99.90;;;;;;5054202;28;20403;-67
2023/03/17 01:41:11;;;;;;;2.83;1.95;;;7.10;99.90;;;;;;5053638;28;20045;-67
2023/03/17 01:43:37;;;;;;;3.15;2.05;;;7.00;99.90;;;;;;5054044;28;20044;-67
2023/03/17 01:46:24;;;;;;;4.00;2.33;;;6.90;99.90;;;;;;5053056;28;20468;-67
2023/03/17 01:49:18;;;;;;;2.95;1.90;;;7.30;99.90;;;;;;5053281;28;20045;-67
2023/03/17 01:51:46;;;;;;;3.25;2.47;;;6.80;99.90;;;;;;5053316;28;20526;-67
2023/03/17 01:54:36;;;;;;;3.65;2.45;;;6.90;99.90;;;;;;5052727;28;20442;-67
2023/03/17 01:57:28;;;;;;;3.38;2.38;;;6.80;99.90;;;;;;5053316;28;20044;-67
2023/03/17 02:00:04;;;;;;;3.30;2.30;;;6.80;99.90;;;;;;5036039;28;20040;-67
2023/03/17 02:02:33;;;;;;;4.50;2.50;;;7.10;99.90;;;;;;5053245;28;20041;-67
2023/03/17 02:04:59;;;;;;;3.65;2.63;;;6.90;99.90;;;;;;5036780;28;20049;-68
2023/03/17 02:07:26;;;;;;;4.03;2.35;;;7.70;99.90;;;;;;5053376;28;20052;-67
2023/03/17 02:09:54;;;;;;;3.10;2.42;;;6.80;99.90;;;;;;5055631;28;20128;-67
2023/03/17 02:12:23;;;;;;;4.22;2.75;;;6.70;99.90;;;;;;5056780;28;20044;-68
2023/03/17 02:14:50;;;;;;;4.30;2.53;;;7.00;99.90;;;;;;5039513;28;20049;-68
2023/03/17 02:17:17;;;;;;;5.07;2.42;;;6.80;99.90;;;;;;5057919;28;20048;-67
2023/03/17 02:19:42;;;;;;;4.07;2.22;;;7.00;99.90;;;;;;5057290;28;20546;-67
2023/03/17 02:22:09;;;;;;;5.28;2.40;;;7.10;99.90;;;;;;5057335;28;20132;-67
2023/03/17 02:24:51;;;;;;;4.38;2.33;;;6.90;99.90;;;;;;5039465;28;20105;-67
2023/03/17 02:27:37;;;;;;;3.13;2.30;;;6.90;99.90;;;;;;5056712;28;20054;-67
2023/03/17 02:30:05;;;;;;;4.60;2.42;;;6.90;99.90;;;;;;5039847;28;20041;-67
2023/03/17 02:32:34;;;;;;;3.08;2.30;;;7.10;99.90;;;;;;5056562;28;20505;-68
2023/03/17 02:35:00;;;;;;;3.78;2.83;;;6.80;99.90;;;;;;5056510;28;20055;-68
2023/03/17 02:37:26;;;;;;;4.60;2.38;;;6.80;99.90;;;;;;5056484;28;20033;-67
2023/03/17 02:39:52;;;;;;;4.30;2.58;;;7.00;99.90;;;;;;5038819;28;20483;-67
2023/03/17 02:42:19;;;;;;;3.92;2.53;;;6.80;99.90;;;;;;5057062;28;20045;-67
2023/03/17 02:44:45;;;;;;;3.97;2.00;;;7.10;99.90;;;;;;5057934;28;20080;-68
2023/03/17 02:47:11;;;;;;;3.20;2.70;;;7.20;99.90;;;;;;5058575;28;20095;-68
2023/03/17 02:49:38;;;;;;;5.10;2.55;;;7.20;99.90;;;;;;5059992;28;20380;-67
2023/03/17 02:52:05;;;;;;;4.30;2.50;;;6.80;99.90;;;;;;5059133;28;20072;-67
2023/03/17 02:54:31;;;;;;;6.57;2.80;;;6.80;99.90;;;;;;5056757;28;20053;-68
2023/03/17 02:56:56;;;;;;;4.55;2.70;;;6.90;99.90;;;;;;5056331;28;20127;-68
2023/03/17 02:59:22;;;;;;;3.40;2.63;;;6.80;99.90;;;;;;5038696;28;20067;-67
2023/03/17 03:01:49;;;;;;;3.30;2.38;;;7.00;99.90;;;;;;5038875;28;20120;-67
2023/03/17 03:04:15;;;;;;;3.00;2.47;;;6.60;99.90;;;;;;5056000;28;20041;-67
2023/03/17 03:06:43;;;;;;;3.35;2.72;;;6.80;99.90;;;;;;5056090;28;20102;-67
2023/03/17 03:09:10;;;;;;;4.75;2.28;;;7.00;99.90;;;;;;5056185;28;20109;-68
2023/03/17 03:11:40;;;;;;;5.13;2.70;;;6.80;99.90;;;;;;5038417;28;20080;-67
2023/03/17 03:14:07;;;;;;;3.10;2.22;;;6.70;99.90;;;;;;5055885;28;20041;-67
2023/03/17 03:16:33;;;;;;;4.30;2.72;;;6.60;99.90;;;;;;5055508;28;20496;-67
2023/03/17 03:18:59;;;;;;;5.28;2.97;;;6.40;99.90;;;;;;5056328;28;20138;-67
2023/03/17 03:21:25;;;;;;;3.80;2.70;;;6.70;99.90;;;;;;5056507;28;20048;-68
2023/03/17 03:23:51;;;;;;;3.90;2.22;;;6.50;99.90;;;;;;5038320;28;20045;-68
2023/03/17 03:26:16;;;;;;;4.85;2.78;;;6.60;99.90;;;;;;5056265;28;20044;-67
2023/03/17 03:28:42;;;;;;;3.30;2.60;;;6.60;99.90;;;;;;5055560;28;20080;-67
2023/03/17 03:31:08;;;;;;;3.67;2.15;;;6.80;99.90;;;;;;5055558;28;20117;-67
2023/03/17 03:33:34;;;;;;;3.60;2.63;;;7.00;99.90;;;;;;5055542;28;20044;-67
2023/03/17 03:36:00;;;;;;;3.35;2.67;;;6.90;99.90;;;;;;5055968;28;20111;-67
2023/03/17 03:38:26;;;;;;;3.30;2.13;;;6.70;99.90;;;;;;5055283;28;20055;-67
2023/03/17 03:40:52;;;;;;;2.85;2.10;;;6.70;99.90;;;;;;5055276;28;20048;-67
2023/03/17 03:43:19;;;;;;;4.05;2.13;;;6.90;99.90;;;;;;5055636;28;20049;-67
2023/03/17 03:45:45;;;;;;;2.63;2.30;;;6.60;99.90;;;;;;5055176;28;20206;-67
2023/03/17 03:48:10;;;;;;;3.63;2.40;;;7.10;99.90;;;;;;5055036;28;20140;-67
2023/03/17 03:50:36;;;;;;;3.20;2.38;;;6.70;99.90;;;;;;5055633;28;20045;-67
2023/03/17 03:53:02;;;;;;;2.83;2.30;;;6.80;99.90;;;;;;5054729;28;20056;-67
2023/03/17 03:55:28;;;;;;;3.70;2.58;;;6.60;99.90;;;;;;5054464;28;20053;-68
2023/03/17 03:57:54;;;;;;;4.38;2.70;;;6.80;99.90;;;;;;5054839;28;20385;-67
2023/03/17 04:00:20;;;;;;;3.13;2.38;;;6.90;99.90;;;;;;5054825;28;20041;-67
2023/03/17 04:02:46;;;;;;;3.13;2.40;;;6.60;99.90;;;;;;5054621;28;20048;-67
2023/03/17 04:05:14;;;;;;;4.45;2.30;;;7.00;99.90;;;;;;5054657;28;20050;-67
2023/03/17 04:07:41;;;;;;;4.50;2.63;;;6.50;99.90;;;;;;5054739;28;20044;-67
2023/03/17 04:10:09;;;;;;;3.58;2.47;;;6.60;99.90;;;;;;5037330;28;20164;-67
2023/03/17 04:12:34;;;;;;;3.60;2.17;;;6.60;99.90;;;;;;5054531;28;20515;-67
2023/03/17 04:15:01;;;;;;;4.22;2.33;;;7.00;99.90;;;;;;5054756;28;20037;-67
2023/03/17 04:17:26;;;;;;;3.33;2.15;;;6.50;99.90;;;;;;5054477;28;20059;-68
2023/03/17 04:19:52;;;;;;;2.97;2.05;;;6.60;99.90;;;;;;5054406;28;20127;-68
2023/03/17 04:22:18;;;;;;;2.90;2.28;;;6.60;99.90;;;;;;5055220;28;20041;-67
2023/03/17 04:24:43;;;;;;;3.65;2.33;;;6.60;99.90;;;;;;5054246;28;20080;-66
2023/03/17 04:27:09;;;;;;;5.03;2.80;;;6.60;99.90;;;;;;5054316;28;20050;-68
2023/03/17 04:29:35;;;;;;;3.28;2.25;;;6.70;99.90;;;;;;5054542;28;20052;-67
2023/03/17 04:32:02;;;;;;;3.63;2.03;;;6.90;99.90;;;;;;5054192;28;20041;-68
2023/03/17 04:34:28;;;;;;;4.30;2.20;;;6.60;99.90;;;;;;5054010;28;20120;-67
2023/03/17 04:36:54;;;;;;;4.13;2.03;;;6.60;99.90;;;;;;5054676;28;20060;-67
2023/03/17 04:39:19;;;;;;;3.70;2.13;;;6.50;99.90;;;;;;5054876;28;20037;-67
2023/03/17 04:41:45;;;;;;;2.75;2.20;;;6.50;99.90;;;;;;5054039;28;20045;-67
2023/03/17 04:44:11;;;;;;;4.05;2.20;;;6.80;99.90;;;;;;5054734;28;20139;-67
2023/03/17 04:46:37;;;;;;;3.53;2.38;;;6.60;99.90;;;;;;5035936;28;20378;-67
2023/03/17 04:49:03;;;;;;;4.57;2.38;;;6.80;99.90;;;;;;5037100;28;20437;-67
2023/03/17 04:51:30;;;;;;;2.78;2.15;;;6.60;99.90;;;;;;5053587;28;20041;-67
2023/03/17 04:53:55;;;;;;;3.28;2.15;;;6.80;99.90;;;;;;5053719;28;20390;-67
2023/03/17 04:56:21;;;;;;;4.07;2.08;;;6.50;99.90;;;;;;5053770;28;20057;-66
2023/03/17 04:58:47;;;;;;;3.90;1.95;;;6.60;99.90;;;;;;5054862;28;20120;-67
2023/03/17 05:01:12;;;;;;;3.40;2.10;;;6.60;99.90;;;;;;5053844;28;20056;-68
2023/03/17 05:03:39;;;;;;;3.80;2.30;;;6.50;99.90;;;;;;5035921;28;20042;-67
2023/03/17 05:06:05;;;;;;;3.83;1.70;;;6.60;99.90;;;;;;5054205;28;20435;-67
2023/03/17 05:08:31;;;;;;;3.80;2.28;;;6.50;99.90;;;;;;5054241;28;20503;-67
2023/03/17 05:10:57;;;;;;;2.88;2.05;;;6.80;99.90;;;;;;5053604;28;20127;-67
2023/03/17 05:13:24;;;;;;;3.35;2.05;;;6.60;99.90;;;;;;5053599;28;20128;-67
2023/03/17 05:15:52;;;;;;;3.38;1.90;;;6.80;99.90;;;;;;5053601;28;20053;-67
2023/03/17 05:18:20;;;;;;;4.28;2.53;;;6.70;99.90;;;;;;5053476;28;20052;-67
2023/03/17 05:20:46;;;;;;;4.80;2.45;;;6.70;99.90;;;;;;5053514;28;20044;-67
2023/03/17 05:23:11;;;;;;;3.08;1.92;;;6.50;99.90;;;;;;5053110;28;20451;-67
2023/03/17 05:25:38;;;;;;;2.83;2.10;;;6.60;99.90;;;;;;5053444;28;20049;-67
2023/03/17 05:28:05;;;;;;;3.65;2.50;;;6.40;99.90;;;;;;5053415;28;20053;-67
2023/03/17 05:30:32;;;;;;;5.20;2.33;;;6.70;99.90;;;;;;5053397;28;20065;-67
2023/03/17 05:32:58;;;;;;;4.63;2.20;;;6.50;99.90;;;;;;5053323;28;20045;-67
2023/03/17 05:35:24;;;;;;;3.28;2.20;;;6.60;99.90;;;;;;5053371;28;20071;-67
2023/03/17 05:37:50;;;;;;;3.60;1.50;;;6.40;99.90;;;;;;5035587;28;20434;-67
2023/03/17 05:40:16;;;;;;;3.53;1.65;;;6.60;99.90;;;;;;5036240;28;20041;-67
2023/03/17 05:42:41;;;;;;;2.55;2.08;;;6.30;99.90;;;;;;5035738;28;20045;-67
2023/03/17 05:45:08;;;;;;;4.80;1.90;;;6.50;99.90;;;;;;5053305;28;20500;-67
2023/03/17 05:47:35;;;;;;;4.18;1.95;;;6.40;99.90;;;;;;5057373;28;20045;-67
2023/03/17 05:50:01;;;;;;;2.92;1.88;;;6.50;99.90;;;;;;5057917;28;20053;-67
2023/03/17 05:52:27;;;;;;;3.13;1.92;;;6.40;99.90;;;;;;5057269;28;20476;-67
2023/03/17 05:54:54;;;;;;;3.70;1.95;;;6.50;99.90;;;;;;5057088;28;20143;-67
2023/03/17 05:57:20;;;;;;;4.72;2.17;;;6.40;99.90;;;;;;5057865;28;20091;-67
2023/03/17 05:59:47;;;;;;;4.97;2.40;;;6.80;99.90;;;;;;5057084;28;20091;-67
2023/03/17 06:02:13;;;;;;;3.30;2.22;;;6.60;99.90;;;;;;5057050;28;20365;-67
2023/03/17 06:04:39;;;;;;;2.53;1.83;;;6.50;99.90;;;;;;5056938;28;20041;-67
2023/03/17 06:07:06;;;;;;;3.00;1.60;;;6.50;99.90;;;;;;5056641;28;20051;-67
2023/03/17 06:09:32;;;;;;;4.18;2.38;;;6.50;99.90;;;;;;5056814;28;20428;-67
2023/03/17 06:11:58;;;;;;;3.30;2.03;;;6.60;99.90;;;;;;5057419;28;20052;-67
2023/03/17 06:14:24;;;;;;;4.22;2.20;;;6.50;99.90;;;;;;5056788;28;20041;-67
2023/03/17 06:16:50;;;;;;;3.28;1.98;;;6.50;99.90;;;;;;5056788;28;20045;-67
2023/03/17 06:19:16;;;;;;;5.15;1.98;;;6.50;99.90;;;;;;5039953;28;20052;-67
2023/03/17 06:21:42;;;;;;;3.67;2.42;;;6.50;99.90;;;;;;5056834;28;20056;-67
2023/03/17 06:24:08;;;;;;;3.35;1.80;;;6.50;99.90;;;;;;5038765;28;20045;-67
2023/03/17 06:26:36;;;;;;;4.00;1.70;;;6.70;99.90;;;;;;5056252;28;20480;-67
2023/03/17 06:29:03;;;;;;;3.38;2.40;;;6.70;99.90;;;;;;5057285;28;20048;-67
2023/03/17 06:31:29;;;;;;;4.90;2.20;;;6.70;99.90;;;;;;5056483;28;20156;-67
2023/03/17 06:33:56;;;;;;;2.38;1.90;;;7.00;99.90;;;;;;5056492;28;20049;-67
2023/03/17 06:36:22;;;;;;;4.85;2.00;;;6.60;99.90;;;;;;5056426;28;20045;-68
2023/03/17 06:38:48;;;;;;;2.78;2.00;;;7.00;99.90;;;;;;5056347;28;20132;-67
2023/03/17 06:41:14;;;;;;;5.93;2.38;;;6.70;99.90;;;;;;5056293;28;20133;-67
2023/03/17 06:43:40;;;;;;;3.83;2.05;;;6.70;99.90;;;;;;5055878;28;20044;-67
2023/03/17 06:46:06;;;;;;;5.57;1.92;;;6.70;99.90;;;;;;5038950;28;20399;-67
2023/03/17 06:48:32;;;;;;;3.58;2.10;;;6.70;99.90;;;;;;5056666;28;20140;-67
2023/03/17 06:50:59;;;;;;;3.80;2.00;;;7.00;99.90;;;;;;5038604;28;20049;-68
2023/03/17 06:53:26;;;;;;;2.90;2.00;;;6.70;99.90;;;;;;5055759;28;20447;-68
2023/03/17 06:55:51;;;;;;;3.38;2.40;;;7.00;99.90;;;;;;5056801;28;20048;-68
2023/03/17 06:58:19;;;;;;;3.13;2.17;;;6.90;99.90;;;;;;5037617;28;20528;-67
2023/03/17 07:00:46;;;;;;;3.03;1.77;;;6.90;99.90;;;;;;5055982;28;20103;-67
2023/03/17 07:03:11;;;;;;;4.10;1.95;;;7.10;99.90;;;;;;5056639;28;20048;-67
2023/03/17 07:05:39;;;;;;;2.78;1.75;;;7.00;99.90;;;;;;5039038;28;20051;-68
2023/03/17 07:08:05;;;;;;;2.88;2.08;;;7.10;99.90;;;;;;5055548;28;20519;-67
2023/03/17 07:10:32;;;;;;;2.40;1.80;;;6.90;99.90;;;;;;5056294;28;20369;-68
2023/03/17 07:12:57;;;;;;;3.45;1.80;;;7.30;99.90;;;;;;5056539;28;20053;-67
2023/03/17 07:15:23;;;;;;;2.75;1.88;;;7.00;99.90;;;;;;5055742;28;20037;-67
2023/03/17 07:17:49;;;;;;;2.92;1.92;;;7.10;99.90;;;;;;5037835;28;20045;-68
2023/03/17 07:20:15;;;;;;;4.40;2.08;;;7.20;99.90;;;;;;5055682;28;20051;-68
2023/03/17 07:22:41;;;;;;;2.42;1.58;;;7.10;99.90;;;;;;5056334;28;20055;-67
2023/03/17 07:25:08;;;;;;;3.33;1.73;;;7.10;99.90;;;;;;5055976;28;20134;-68
2023/03/17 07:27:34;;;;;;;3.05;1.80;;;7.20;99.90;;;;;;5041541;28;20049;-68
2023/03/17 07:30:03;;;;;;;3.47;1.80;;;7.10;99.90;;;;;;5058270;28;20068;-68
2023/03/17 07:32:30;;;;;;;3.50;1.75;;;7.10;99.90;;;;;;5055828;28;20049;-68
2023/03/17 07:34:56;;;;;;;3.47;1.60;;;7.20;99.90;;;;;;5037529;28;20041;-67
2023/03/17 07:37:22;;;;;;;2.13;1.60;;;7.30;99.90;;;;;;5055294;28;20407;-68
2023/03/17 07:39:48;;;;;;;2.45;1.70;;;7.30;99.90;;;;;;5055280;28;20055;-67
2023/03/17 07:42:15;;;;;;;3.45;2.00;;;7.50;99.90;;;;;;5055615;28;20132;-67
2023/03/17 07:44:42;;;;;;;3.08;2.03;;;7.40;99.90;;;;;;5055263;28;20071;-67
2023/03/17 07:47:09;;;;;;;2.97;1.80;;;7.40;99.90;;;;;;5055500;28;20447;-67
2023/03/17 07:49:36;;;;;;;2.45;1.60;;;7.50;99.90;;;;;;5055044;28;20053;-68
2023/03/17 07:52:02;;;;;;;3.22;1.80;;;7.50;99.90;;;;;;5037194;28;20045;-67
2023/03/17 07:54:28;;;;;;;2.80;1.40;;;7.50;99.90;;;;;;5055170;28;20568;-67
2023/03/17 07:56:54;;;;;;;3.63;1.73;;;7.80;99.90;;;;;;5021756;28;20097;-68
2023/03/17 07:59:21;;;;;;;3.22;1.65;;;7.60;99.90;;;;;;5055830;28;20373;-68
2023/03/17 08:01:46;;;;;;;3.38;1.90;;;7.80;99.90;;;;;;5057002;28;20057;-68
2023/03/17 08:04:13;;;;;;;3.00;1.60;;;7.70;99.90;;;;;;5060424;28;20068;-68
2023/03/17 08:06:42;;;;;;;3.30;1.83;;;7.80;99.90;;;;;;5056367;28;20060;-68
2023/03/17 08:09:10;;;;;;;3.50;2.03;;;7.90;99.90;;;;;;5036864;28;20209;-68
2023/03/17 08:11:36;;;;;;;2.70;1.50;;;7.80;99.90;;;;;;5054624;28;20118;-68
2023/03/17 08:14:03;;;;;;;3.97;1.83;;;8.00;99.90;;;;;;5037004;28;20049;-67
2023/03/17 08:16:29;;;;;;;3.17;1.88;;;7.90;99.90;;;;;;5054782;28;20131;-67
2023/03/17 08:18:57;;;;;;;4.40;1.80;;;8.00;99.90;;;;;;5054797;28;20127;-67
2023/03/17 08:21:25;;;;;;;3.80;1.83;;;8.10;99.90;;;;;;5054874;28;20049;-67
2023/03/17 08:23:52;;;;;;;2.50;1.70;;;8.20;99.90;;;;;;5037136;28;20488;-67
2023/03/17 08:26:18;;;;;;;3.78;1.83;;;8.30;99.90;;;;;;5054708;28;20055;-68
2023/03/17 08:28:44;;;;;;;3.90;1.90;;;8.20;99.90;;;;;;5054913;28;20037;-68
2023/03/17 08:31:13;;;;;;;3.60;1.80;;;8.30;99.90;;;;;;5055091;28;20045;-68
2023/03/17 08:33:41;;;;;;;3.30;1.52;;;8.40;99.90;;;;;;5054268;28;20056;-67
2023/03/17 08:36:08;;;;;;;3.40;1.85;;;8.40;99.90;;;;;;5054448;28;20048;-68
2023/03/17 08:38:36;;;;;;;2.30;1.65;;;8.50;99.90;;;;;;5054985;28;20049;-67
2023/03/17 08:41:05;;;;;;;2.88;1.65;;;8.60;99.90;;;;;;5037057;28;20121;-67
2023/03/17 08:43:31;;;;;;;2.83;1.75;;;8.70;99.90;;;;;;5054213;28;20037;-68
2023/03/17 08:46:05;;;;;;;4.65;1.70;;;8.80;99.90;;;;;;5054260;28;20048;-67
2023/03/17 08:48:33;;;;;;;1.98;1.55;;;8.80;99.90;;;;;;5037393;28;20120;-67
2023/03/17 08:50:59;;;;;;;2.30;1.67;;;8.90;99.90;;;;;;5054000;28;20071;-67
2023/03/17 08:53:25;;;;;;;3.42;2.13;;;9.00;99.90;;;;;;5053800;28;20053;-67
2023/03/17 08:55:51;;;;;;;2.65;1.33;;;8.90;99.90;;;;;;5054936;28;20049;-67
2023/03/17 08:58:18;;;;;;;4.60;1.80;;;9.00;99.90;;;;;;5053875;28;20488;-67
2023/03/17 09:00:45;;;;;;;3.95;1.70;;;9.20;99.90;;;;;;5020208;28;20045;-67
2023/03/17 09:03:12;;;;;;;3.25;1.50;;;9.30;99.90;;;;;;5053782;28;20115;-67
2023/03/17 09:05:38;;;;;;;3.60;1.90;;;9.20;99.90;;;;;;5053733;28;20087;-67
2023/03/17 09:08:04;;;;;;;2.78;1.50;;;9.30;99.90;;;;;;5053731;28;20072;-67
2023/03/17 09:10:29;;;;;;;2.10;1.55;;;9.30;99.90;;;;;;5053992;28;20055;-67
2023/03/17 09:13:01;;;;;;;3.63;1.67;;;9.40;99.90;;;;;;5036433;28;20045;-67
2023/03/17 09:15:27;;;;;;;2.50;1.38;;;9.50;99.90;;;;;;5053680;28;20052;-69
2023/03/17 09:17:53;;;;;;;2.22;1.60;;;9.60;99.90;;;;;;5036353;28;20098;-68
2023/03/17 09:20:21;;;;;;;2.25;1.60;;;9.70;99.90;;;;;;5036021;28;20350;-68
2023/03/17 09:22:47;;;;;;;2.78;1.67;;;9.90;99.90;;;;;;5054104;28;20084;-68
2023/03/17 09:25:14;;;;;;;1.90;1.63;;;9.90;99.90;;;;;;5035971;28;20110;-68
2023/03/17 09:27:40;;;;;;;4.35;1.80;;;10.10;99.90;;;;;;5054019;28;20049;-67
2023/03/17 09:30:09;;;;;;;3.17;1.92;;;10.00;99.90;;;;;;5053125;28;20048;-68
2023/03/17 09:32:36;;;;;;;1.70;1.45;;;10.10;99.90;;;;;;5053305;28;20049;-68
2023/03/17 09:35:02;;;;;;;2.17;1.60;;;10.10;99.90;;;;;;5053288;28;20060;-69
2023/03/17 09:37:28;;;;;;;3.42;1.95;;;10.10;99.90;;;;;;5053735;28;20369;-70
2023/03/17 09:39:56;;;;;;;3.08;1.80;;;10.10;99.90;;;;;;5036384;28;20071;-70
2023/03/17 09:42:42;;;;;;;2.67;1.92;;;10.20;99.90;;;;;;5053241;28;20067;-69
2023/03/17 09:45:30;;;;;;;3.35;1.65;;;10.20;99.90;;;;;;5053179;28;20048;-70
2023/03/17 09:48:08;;;;;;;2.85;1.60;;;10.20;99.90;;;;;;5053184;28;20489;-70
2023/03/17 09:50:38;;;;;;;2.65;1.60;;;10.30;99.90;;;;;;5052827;28;20507;-70
2023/03/17 09:53:11;;;;;;;3.65;2.10;;;10.30;99.90;;;;;;5052772;28;20503;-70
2023/03/17 09:55:37;;;;;;;2.60;2.00;;;10.50;99.90;;;;;;5053366;28;20064;-70
2023/03/17 09:58:03;;;;;;;4.07;1.60;;;10.50;99.90;;;;;;5035377;28;20041;-69
2023/03/17 10:00:30;;;;;;;2.92;1.65;;;10.50;99.90;;;;;;5053471;28;20044;-67
2023/03/17 10:02:57;;;;;;;3.60;1.80;;;10.60;99.90;;;;;;5052606;28;20048;-68
2023/03/17 10:05:28;;;;;;;2.55;1.85;;;10.70;99.90;;;;;;5052967;28;20045;-68
2023/03/17 10:08:12;;;;;;;3.10;1.90;;;10.80;99.90;;;;;;5053042;28;20048;-68
2023/03/17 10:11:02;;;;;;;4.03;1.80;;;10.90;99.90;;;;;;5036247;28;20041;-68
2023/03/17 10:13:49;;;;;;;3.15;1.60;;;11.00;99.90;;;;;;5054280;28;20193;-68
2023/03/17 10:16:19;;;;;;;4.05;1.90;;;11.10;99.90;;;;;;5053073;28;20040;-68
2023/03/17 10:18:53;;;;;;;3.22;2.20;;;11.20;99.90;;;;;;5052985;28;20051;-68
2023/03/17 10:21:25;;;;;;;3.88;1.90;;;11.30;99.90;;;;;;5053197;28;20044;-68
2023/03/17 10:23:53;;;;;;;2.33;1.75;;;11.40;99.90;;;;;;5053565;28;20060;-69
2023/03/17 10:26:47;;;;;;;4.85;1.95;;;11.50;99.90;;;;;;5052838;28;20045;-68
2023/03/17 10:29:21;;;;;;;3.30;1.90;;;11.50;99.90;;;;;;5052964;28;20048;-68
2023/03/17 10:31:47;;;;;;;2.22;1.58;;;11.60;99.90;;;;;;5053583;28;20044;-68
2023/03/17 10:34:19;;;;;;;3.60;1.58;;;11.60;99.90;;;;;;5055284;28;20497;-68
2023/03/17 10:36:52;;;;;;;3.45;2.08;;;11.60;99.90;;;;;;5056762;28;20401;-69
2023/03/17 10:39:19;;;;;;;;;;;11.60;99.90;;;;;;5057687;28;20048;-68
2023/03/17 10:41:52;;;;;;;3.33;2.10;;;11.70;99.90;;;;;;5056058;28;19925;-68
2023/03/17 10:44:47;;;;;;;3.25;2.20;;;11.60;99.90;;;;;;5056303;28;20116;-68
2023/03/17 10:47:23;;;;;;;5.05;2.75;;;11.70;99.90;;;;;;5056300;28;20041;-68
2023/03/17 10:49:51;;;;;;;4.60;2.13;;;11.70;99.90;;;;;;5056834;28;20048;-68
2023/03/17 10:52:26;;;;;;;4.88;2.00;;;11.80;99.90;;;;;;5056152;28;20052;-69
2023/03/17 10:54:52;;;;;;;3.53;2.10;;;11.80;99.90;;;;;;5055891;28;20494;-68
2023/03/17 10:57:19;;;;;;;3.60;2.20;;;11.90;99.90;;;;;;5038305;28;20496;-68
2023/03/17 10:59:53;;;;;;;3.65;2.20;;;11.90;99.90;;;;;;5038750;28;20081;-68
2023/03/17 11:02:26;;;;;;;5.25;2.42;;;11.90;99.90;;;;;;5037911;28;20512;-67
2023/03/17 11:05:04;;;;;;;3.35;1.85;;;11.90;99.90;;;;;;5055903;28;20048;-67
2023/03/17 11:07:37;;;;;;;2.83;2.33;;;12.00;99.90;;;;;;5056502;28;20044;-67
2023/03/17 11:10:13;;;;;;;3.63;2.00;;;12.20;99.90;;;;;;5056027;28;20048;-67
2023/03/17 11:12:40;;;;;;;3.60;1.83;;;12.10;99.90;;;;;;5038518;28;20083;-67
2023/03/17 11:15:12;;;;;;;4.93;2.40;;;12.20;99.90;;;;;;5055772;28;20041;-67
2023/03/17 11:18:00;;;;;;;4.60;2.45;;;12.20;99.90;;;;;;5056303;28;20132;-69
2023/03/17 11:20:45;;;;;;;2.75;1.95;;;12.40;99.90;;;;;;5055731;28;20045;-68
2023/03/17 11:23:31;;;;;;;3.80;1.95;;;12.40;99.90;;;;;;5038633;28;20059;-67
2023/03/17 11:26:29;;;;;;;5.13;2.80;;;12.40;99.90;;;;;;5037013;28;20456;-68
2023/03/17 11:29:02;;;;;;;5.38;2.45;;;12.50;99.90;;;;;;5038091;28;20045;-67
2023/03/17 11:31:37;;;;;;;4.50;2.25;;;12.50;99.90;;;;;;5038452;28;20057;-69
2023/03/17 11:34:12;;;;;;;4.70;2.60;;;12.60;99.90;;;;;;5039015;28;20041;-69
2023/03/17 11:36:50;;;;;;;6.30;2.45;;;12.60;99.90;;;;;;5055438;28;20041;-69
2023/03/17 11:39:21;;;;;;;6.13;2.97;;;12.60;99.90;;;;;;5037918;28;20135;-68
2023/03/17 11:41:59;;;;;;;5.25;3.20;;;12.60;99.90;;;;;;5055492;28;20048;-68
2023/03/17 11:44:40;;;;;;;5.45;2.58;;;12.70;99.90;;;;;;5037064;28;20051;-69
2023/03/17 11:47:36;;;;;;;3.75;2.05;;;12.70;99.90;;;;;;5055216;28;20044;-69
2023/03/17 11:50:56;;;;;;;4.03;2.47;;;12.70;99.90;;;;;;5055159;28;20098;-69
2023/03/17 11:53:27;;;;;;;5.95;3.13;;;12.80;99.90;;;;;;4977326;28;20054;-69
2023/03/17 11:55:59;;;;;;;6.00;3.00;;;12.80;99.90;;;;;;5052551;28;20103;-68
2023/03/17 11:58:38;;;;;;;5.88;3.03;;;13.00;99.90;;;;;;5055788;28;20092;-69
2023/03/17 12:01:08;;;;;;;4.53;2.72;;;13.00;99.90;;;;;;5054904;28;20106;-69
2023/03/17 12:03:46;;;;;;;5.07;2.80;;;13.10;99.90;;;;;;5054681;28;20098;-69
2023/03/17 12:06:22;;;;;;;5.05;2.70;;;13.20;99.90;;;;;;5037452;28;20453;-69
2023/03/17 12:09:16;;;;;;;5.15;3.10;;;13.20;99.90;;;;;;5055278;28;20080;-68
2023/03/17 12:11:43;;;;;;;4.47;3.03;;;13.20;99.90;;;;;;5055303;28;20051;-68
2023/03/17 12:14:27;;;;;;;4.20;2.50;;;13.30;99.90;;;;;;5036605;28;20595;-68
2023/03/17 12:17:05;;;;;;;6.20;2.83;;;13.50;99.90;;;;;;5055428;28;20099;-68
2023/03/17 12:20:00;;;;;;;5.43;3.10;;;13.40;99.90;;;;;;5054110;28;20492;-69
2023/03/17 12:22:35;;;;;;;11.23;4.28;;;13.50;99.90;;;;;;5054380;28;20053;-68
2023/03/17 12:25:26;;;;;;;7.40;3.38;;;13.50;99.90;;;;;;5054908;28;20049;-68
2023/03/17 12:28:18;;;;;;;4.55;2.85;;;13.60;99.90;;;;;;5036708;28;20076;-68
2023/03/17 12:30:53;;;;;;;5.07;2.83;;;13.70;99.90;;;;;;5054350;28;20056;-68
2023/03/17 12:33:42;;;;;;;5.70;3.00;;;13.70;99.90;;;;;;5020497;28;20041;-68
2023/03/17 12:36:14;;;;;;;5.57;3.17;;;13.80;99.90;;;;;;5054275;28;20060;-68
2023/03/17 12:39:00;;;;;;;3.85;2.83;;;14.00;99.90;;;;;;5054774;28;20052;-68
2023/03/17 12:41:44;;;;;;;4.47;3.42;;;13.90;99.90;;;;;;5054149;28;20045;-68
2023/03/17 12:44:22;;;;;;;5.38;3.25;;;13.90;99.90;;;;;;5053971;28;20128;-68
2023/03/17 12:47:18;;;;;;;6.05;3.00;;;14.00;99.90;;;;;;5054620;28;20048;-68
2023/03/17 12:50:04;;;;;;;5.40;2.72;;;14.00;99.90;;;;;;5053939;28;20045;-68
2023/03/17 12:52:52;;;;;;;5.88;3.05;;;14.10;99.90;;;;;;5053877;28;20048;-69
2023/03/17 12:55:24;;;;;;;6.88;3.17;;;14.00;99.90;;;;;;5019403;28;20404;-69
2023/03/17 12:58:03;;;;;;;6.45;2.92;;;14.10;99.90;;;;;;5057349;28;20036;-70
2023/03/17 13:00:32;;;;;;;6.22;3.05;;;14.20;99.90;;;;;;5040723;28;20044;-70
2023/03/17 13:03:22;;;;;;;3.92;3.00;;;14.40;99.90;;;;;;5055724;28;20116;-70
2023/03/17 13:05:58;;;;;;;4.60;2.72;;;14.10;99.90;;;;;;5036365;28;20128;-68
2023/03/17 13:08:30;;;;;;;4.35;2.83;;;14.40;99.90;;;;;;5054731;28;20068;-69
2023/03/17 13:11:14;;;;;;;4.57;2.88;;;14.50;99.90;;;;;;5053821;28;20052;-67
2023/03/17 13:13:43;;;;;;;5.10;2.50;;;14.50;99.90;;;;;;5054376;28;20124;-66
2023/03/17 13:16:33;;;;;;;5.07;2.92;;;14.50;99.90;;;;;;5053536;28;20132;-67